sensor_id;sensor_type;location;lat;lon;timestamp;P1;durP1;ratioP1;P2;durP2;ratioP2
16510;SDS011;8368;48.772;8.754;2023-01-24T00:01:21;27.47;;;15.73;;
16510;SDS011;8368;48.772;8.754;2023-01-24T00:03:47;32.93;;;17.97;;
16510;SDS011;8368;48.772;8.754;2023-01-24T00:06:13;32.67;;;16.87;;
16510;SDS011;8368;48.772;8.754;2023-01-24T00:08:38;32.83;;;16.17;;
16510;SDS011;8368;48.772;8.754;2023-01-24T00:11:05;32.87;;;16.73;;
16510;SDS011;8368;48.772;8.754;2023-01-24T00:13:32;30.37;;;16.30;;
16510;SDS011;8368;48.772;8.754;2023-01-24T00:16:05;31.00;;;15.07;;
16510;SDS011;8368;48.772;8.754;2023-01-24T00:18:36;30.07;;;16.60;;
16510;SDS011;8368;48.772;8.754;2023-01-24T00:21:03;34.10;;;17.80;;
16510;SDS011;8368;48.772;8.754;2023-01-24T00:23:33;34.10;;;18.43;;
16510;SDS011;8368;48.772;8.754;2023-01-24T00:26:00;36.43;;;18.60;;
16510;SDS011;8368;48.772;8.754;2023-01-24T00:28:25;33.43;;;17.30;;
16510;SDS011;8368;48.772;8.754;2023-01-24T00:30:51;39.27;;;19.30;;
16510;SDS011;8368;48.772;8.754;2023-01-24T00:33:16;31.83;;;16.83;;
16510;SDS011;8368;48.772;8.754;2023-01-24T00:35:51;35.47;;;17.67;;
16510;SDS011;8368;48.772;8.754;2023-01-24T00:38:17;38.30;;;18.87;;
16510;SDS011;8368;48.772;8.754;2023-01-24T00:40:44;39.47;;;18.93;;
16510;SDS011;8368;48.772;8.754;2023-01-24T00:43:10;37.30;;;17.90;;
16510;SDS011;8368;48.772;8.754;2023-01-24T00:45:36;37.70;;;18.63;;
16510;SDS011;8368;48.772;8.754;2023-01-24T00:48:03;36.70;;;17.83;;
16510;SDS011;8368;48.772;8.754;2023-01-24T00:50:29;40.10;;;18.33;;
16510;SDS011;8368;48.772;8.754;2023-01-24T00:52:55;40.53;;;17.20;;
16510;SDS011;8368;48.772;8.754;2023-01-24T00:55:21;37.57;;;18.37;;
16510;SDS011;8368;48.772;8.754;2023-01-24T00:57:46;36.77;;;19.17;;
16510;SDS011;8368;48.772;8.754;2023-01-24T01:00:12;39.47;;;17.77;;
16510;SDS011;8368;48.772;8.754;2023-01-24T01:02:38;36.87;;;18.90;;
16510;SDS011;8368;48.772;8.754;2023-01-24T01:05:04;36.93;;;17.97;;
16510;SDS011;8368;48.772;8.754;2023-01-24T01:07:30;38.93;;;18.57;;
16510;SDS011;8368;48.772;8.754;2023-01-24T01:09:56;36.57;;;17.83;;
16510;SDS011;8368;48.772;8.754;2023-01-24T01:12:22;35.20;;;17.37;;
16510;SDS011;8368;48.772;8.754;2023-01-24T01:14:47;34.43;;;17.33;;
16510;SDS011;8368;48.772;8.754;2023-01-24T01:17:13;40.23;;;18.73;;
16510;SDS011;8368;48.772;8.754;2023-01-24T01:19:39;34.30;;;16.97;;
16510;SDS011;8368;48.772;8.754;2023-01-24T01:22:05;39.10;;;18.47;;
16510;SDS011;8368;48.772;8.754;2023-01-24T01:24:30;37.83;;;19.17;;
16510;SDS011;8368;48.772;8.754;2023-01-24T01:26:56;39.57;;;19.53;;
16510;SDS011;8368;48.772;8.754;2023-01-24T01:29:21;38.87;;;18.50;;
16510;SDS011;8368;48.772;8.754;2023-01-24T01:31:47;38.37;;;18.13;;
16510;SDS011;8368;48.772;8.754;2023-01-24T01:34:12;42.10;;;19.30;;
16510;SDS011;8368;48.772;8.754;2023-01-24T01:36:38;37.27;;;18.07;;
16510;SDS011;8368;48.772;8.754;2023-01-24T01:39:04;37.20;;;17.30;;
16510;SDS011;8368;48.772;8.754;2023-01-24T01:41:29;36.87;;;18.43;;
16510;SDS011;8368;48.772;8.754;2023-01-24T01:43:55;40.37;;;19.40;;
16510;SDS011;8368;48.772;8.754;2023-01-24T01:46:49;39.57;;;18.50;;
16510;SDS011;8368;48.772;8.754;2023-01-24T01:49:24;36.60;;;17.47;;
16510;SDS011;8368;48.772;8.754;2023-01-24T01:51:52;39.57;;;18.13;;
16510;SDS011;8368;48.772;8.754;2023-01-24T01:54:35;41.13;;;19.30;;
16510;SDS011;8368;48.772;8.754;2023-01-24T01:57:08;39.67;;;18.03;;
16510;SDS011;8368;48.772;8.754;2023-01-24T01:59:38;38.27;;;18.93;;
16510;SDS011;8368;48.772;8.754;2023-01-24T02:02:07;38.43;;;18.47;;
16510;SDS011;8368;48.772;8.754;2023-01-24T02:04:35;44.07;;;19.60;;
16510;SDS011;8368;48.772;8.754;2023-01-24T02:09:45;40.80;;;19.47;;
16510;SDS011;8368;48.772;8.754;2023-01-24T02:12:17;34.63;;;16.63;;
16510;SDS011;8368;48.772;8.754;2023-01-24T02:14:46;36.50;;;18.30;;
16510;SDS011;8368;48.772;8.754;2023-01-24T02:17:33;37.80;;;18.60;;
16510;SDS011;8368;48.772;8.754;2023-01-24T02:20:05;37.83;;;18.40;;
16510;SDS011;8368;48.772;8.754;2023-01-24T02:28:15;38.67;;;18.13;;
16510;SDS011;8368;48.772;8.754;2023-01-24T02:30:41;37.87;;;17.47;;
16510;SDS011;8368;48.772;8.754;2023-01-24T02:33:14;40.00;;;19.20;;
16510;SDS011;8368;48.772;8.754;2023-01-24T02:35:42;39.97;;;17.80;;
16510;SDS011;8368;48.772;8.754;2023-01-24T02:38:13;37.03;;;17.73;;
16510;SDS011;8368;48.772;8.754;2023-01-24T02:40:46;39.70;;;19.37;;
16510;SDS011;8368;48.772;8.754;2023-01-24T02:43:16;40.40;;;18.90;;
16510;SDS011;8368;48.772;8.754;2023-01-24T02:45:44;39.60;;;17.77;;
16510;SDS011;8368;48.772;8.754;2023-01-24T02:48:10;37.70;;;17.60;;
16510;SDS011;8368;48.772;8.754;2023-01-24T02:50:35;40.37;;;19.50;;
16510;SDS011;8368;48.772;8.754;2023-01-24T02:53:20;35.13;;;17.83;;
16510;SDS011;8368;48.772;8.754;2023-01-24T02:56:05;40.90;;;18.13;;
16510;SDS011;8368;48.772;8.754;2023-01-24T02:58:51;39.07;;;19.47;;
16510;SDS011;8368;48.772;8.754;2023-01-24T03:01:18;39.67;;;18.13;;
16510;SDS011;8368;48.772;8.754;2023-01-24T03:03:44;41.47;;;19.33;;
16510;SDS011;8368;48.772;8.754;2023-01-24T03:06:11;44.00;;;20.13;;
16510;SDS011;8368;48.772;8.754;2023-01-24T03:08:38;40.70;;;19.43;;
16510;SDS011;8368;48.772;8.754;2023-01-24T03:11:03;41.20;;;19.37;;
16510;SDS011;8368;48.772;8.754;2023-01-24T03:13:30;41.07;;;18.70;;
16510;SDS011;8368;48.772;8.754;2023-01-24T03:16:15;37.37;;;17.67;;
16510;SDS011;8368;48.772;8.754;2023-01-24T03:18:59;39.20;;;18.37;;
16510;SDS011;8368;48.772;8.754;2023-01-24T03:21:44;42.27;;;19.47;;
16510;SDS011;8368;48.772;8.754;2023-01-24T03:24:29;41.83;;;18.90;;
16510;SDS011;8368;48.772;8.754;2023-01-24T03:27:13;39.57;;;17.97;;
16510;SDS011;8368;48.772;8.754;2023-01-24T03:29:58;40.60;;;17.63;;
16510;SDS011;8368;48.772;8.754;2023-01-24T03:32:42;40.73;;;18.80;;
16510;SDS011;8368;48.772;8.754;2023-01-24T03:35:26;38.47;;;17.03;;
16510;SDS011;8368;48.772;8.754;2023-01-24T03:37:52;42.43;;;19.30;;
16510;SDS011;8368;48.772;8.754;2023-01-24T03:40:36;41.50;;;18.57;;
16510;SDS011;8368;48.772;8.754;2023-01-24T03:43:03;37.50;;;18.10;;
16510;SDS011;8368;48.772;8.754;2023-01-24T03:45:30;41.57;;;18.63;;
16510;SDS011;8368;48.772;8.754;2023-01-24T03:48:01;39.97;;;17.93;;
16510;SDS011;8368;48.772;8.754;2023-01-24T03:50:30;40.23;;;17.87;;
16510;SDS011;8368;48.772;8.754;2023-01-24T03:53:15;39.90;;;17.30;;
16510;SDS011;8368;48.772;8.754;2023-01-24T03:55:42;34.47;;;17.47;;
16510;SDS011;8368;48.772;8.754;2023-01-24T03:58:08;39.47;;;17.60;;
16510;SDS011;8368;48.772;8.754;2023-01-24T04:00:35;43.33;;;20.67;;
16510;SDS011;8368;48.772;8.754;2023-01-24T04:03:01;44.13;;;19.10;;
16510;SDS011;8368;48.772;8.754;2023-01-24T04:05:27;36.40;;;18.77;;
16510;SDS011;8368;48.772;8.754;2023-01-24T04:07:53;45.47;;;19.87;;
16510;SDS011;8368;48.772;8.754;2023-01-24T04:10:19;37.53;;;17.80;;
16510;SDS011;8368;48.772;8.754;2023-01-24T04:12:45;37.53;;;17.73;;
16510;SDS011;8368;48.772;8.754;2023-01-24T04:15:14;39.93;;;18.13;;
16510;SDS011;8368;48.772;8.754;2023-01-24T04:17:42;38.53;;;18.47;;
16510;SDS011;8368;48.772;8.754;2023-01-24T04:20:08;44.13;;;19.77;;
16510;SDS011;8368;48.772;8.754;2023-01-24T04:22:34;38.13;;;16.50;;
16510;SDS011;8368;48.772;8.754;2023-01-24T04:24:59;39.53;;;18.83;;
16510;SDS011;8368;48.772;8.754;2023-01-24T04:27:25;43.43;;;18.83;;
16510;SDS011;8368;48.772;8.754;2023-01-24T04:29:50;44.27;;;18.57;;
16510;SDS011;8368;48.772;8.754;2023-01-24T04:32:16;42.67;;;19.47;;
16510;SDS011;8368;48.772;8.754;2023-01-24T04:34:41;37.77;;;18.50;;
16510;SDS011;8368;48.772;8.754;2023-01-24T04:37:07;36.33;;;17.43;;
16510;SDS011;8368;48.772;8.754;2023-01-24T04:39:32;39.27;;;18.80;;
16510;SDS011;8368;48.772;8.754;2023-01-24T04:41:58;48.83;;;20.20;;
16510;SDS011;8368;48.772;8.754;2023-01-24T04:44:23;43.07;;;20.17;;
16510;SDS011;8368;48.772;8.754;2023-01-24T04:46:49;42.20;;;18.17;;
16510;SDS011;8368;48.772;8.754;2023-01-24T04:49:15;41.40;;;18.33;;
16510;SDS011;8368;48.772;8.754;2023-01-24T04:51:40;42.37;;;20.33;;
16510;SDS011;8368;48.772;8.754;2023-01-24T04:54:09;44.07;;;19.80;;
16510;SDS011;8368;48.772;8.754;2023-01-24T04:56:35;42.80;;;19.97;;
16510;SDS011;8368;48.772;8.754;2023-01-24T04:59:01;41.73;;;19.50;;
16510;SDS011;8368;48.772;8.754;2023-01-24T05:01:27;42.43;;;18.57;;
16510;SDS011;8368;48.772;8.754;2023-01-24T05:03:52;50.50;;;20.47;;
16510;SDS011;8368;48.772;8.754;2023-01-24T05:06:24;42.07;;;18.83;;
16510;SDS011;8368;48.772;8.754;2023-01-24T05:08:50;39.23;;;18.70;;
16510;SDS011;8368;48.772;8.754;2023-01-24T05:11:17;44.67;;;19.10;;
16510;SDS011;8368;48.772;8.754;2023-01-24T05:13:42;43.37;;;19.07;;
16510;SDS011;8368;48.772;8.754;2023-01-24T05:16:08;44.17;;;18.73;;
16510;SDS011;8368;48.772;8.754;2023-01-24T05:18:33;45.83;;;19.30;;
16510;SDS011;8368;48.772;8.754;2023-01-24T05:21:10;43.13;;;19.37;;
16510;SDS011;8368;48.772;8.754;2023-01-24T05:23:37;43.00;;;18.27;;
16510;SDS011;8368;48.772;8.754;2023-01-24T05:26:02;44.40;;;18.47;;
16510;SDS011;8368;48.772;8.754;2023-01-24T05:28:29;42.43;;;20.10;;
16510;SDS011;8368;48.772;8.754;2023-01-24T05:30:59;50.97;;;20.17;;
16510;SDS011;8368;48.772;8.754;2023-01-24T05:33:25;42.07;;;18.97;;
16510;SDS011;8368;48.772;8.754;2023-01-24T05:36:24;45.87;;;20.03;;
16510;SDS011;8368;48.772;8.754;2023-01-24T05:38:44;42.57;;;18.57;;
16510;SDS011;8368;48.772;8.754;2023-01-24T05:41:11;48.00;;;20.23;;
16510;SDS011;8368;48.772;8.754;2023-01-24T05:43:38;45.07;;;19.60;;
16510;SDS011;8368;48.772;8.754;2023-01-24T05:46:05;45.70;;;18.87;;
16510;SDS011;8368;48.772;8.754;2023-01-24T05:48:34;45.30;;;20.40;;
16510;SDS011;8368;48.772;8.754;2023-01-24T05:51:00;45.33;;;19.53;;
16510;SDS011;8368;48.772;8.754;2023-01-24T05:53:30;44.87;;;20.27;;
16510;SDS011;8368;48.772;8.754;2023-01-24T05:55:58;44.93;;;19.53;;
16510;SDS011;8368;48.772;8.754;2023-01-24T05:58:25;43.50;;;19.90;;
16510;SDS011;8368;48.772;8.754;2023-01-24T06:00:54;48.27;;;20.37;;
16510;SDS011;8368;48.772;8.754;2023-01-24T06:03:20;41.73;;;18.90;;
16510;SDS011;8368;48.772;8.754;2023-01-24T06:05:50;48.73;;;19.40;;
16510;SDS011;8368;48.772;8.754;2023-01-24T06:08:17;54.77;;;21.10;;
16510;SDS011;8368;48.772;8.754;2023-01-24T06:10:43;42.83;;;19.27;;
16510;SDS011;8368;48.772;8.754;2023-01-24T06:13:09;51.43;;;19.87;;
16510;SDS011;8368;48.772;8.754;2023-01-24T06:15:35;48.07;;;19.40;;
16510;SDS011;8368;48.772;8.754;2023-01-24T06:18:01;44.90;;;19.43;;
16510;SDS011;8368;48.772;8.754;2023-01-24T06:20:27;50.40;;;21.00;;
16510;SDS011;8368;48.772;8.754;2023-01-24T06:22:54;50.63;;;20.87;;
16510;SDS011;8368;48.772;8.754;2023-01-24T06:25:26;55.00;;;20.23;;
16510;SDS011;8368;48.772;8.754;2023-01-24T06:27:52;46.70;;;19.97;;
16510;SDS011;8368;48.772;8.754;2023-01-24T06:30:18;49.10;;;20.43;;
16510;SDS011;8368;48.772;8.754;2023-01-24T06:37:59;43.20;;;19.57;;
16510;SDS011;8368;48.772;8.754;2023-01-24T06:40:25;49.30;;;21.23;;
16510;SDS011;8368;48.772;8.754;2023-01-24T06:42:51;47.10;;;20.07;;
16510;SDS011;8368;48.772;8.754;2023-01-24T06:45:17;51.10;;;21.07;;
16510;SDS011;8368;48.772;8.754;2023-01-24T06:47:44;51.47;;;20.57;;
16510;SDS011;8368;48.772;8.754;2023-01-24T06:50:12;48.00;;;20.30;;
16510;SDS011;8368;48.772;8.754;2023-01-24T06:52:39;49.40;;;21.17;;
16510;SDS011;8368;48.772;8.754;2023-01-24T06:55:05;55.80;;;20.77;;
16510;SDS011;8368;48.772;8.754;2023-01-24T06:57:31;49.80;;;20.07;;
16510;SDS011;8368;48.772;8.754;2023-01-24T06:59:56;65.03;;;21.70;;
16510;SDS011;8368;48.772;8.754;2023-01-24T07:02:22;47.87;;;19.40;;
16510;SDS011;8368;48.772;8.754;2023-01-24T07:04:47;52.70;;;21.33;;
16510;SDS011;8368;48.772;8.754;2023-01-24T07:07:13;50.73;;;20.43;;
16510;SDS011;8368;48.772;8.754;2023-01-24T07:09:38;51.17;;;21.13;;
16510;SDS011;8368;48.772;8.754;2023-01-24T07:12:04;46.43;;;20.47;;
16510;SDS011;8368;48.772;8.754;2023-01-24T07:14:29;50.07;;;21.70;;
16510;SDS011;8368;48.772;8.754;2023-01-24T07:16:55;52.67;;;20.33;;
16510;SDS011;8368;48.772;8.754;2023-01-24T07:19:21;56.83;;;21.77;;
16510;SDS011;8368;48.772;8.754;2023-01-24T07:21:48;46.57;;;20.80;;
16510;SDS011;8368;48.772;8.754;2023-01-24T07:24:21;49.23;;;21.17;;
16510;SDS011;8368;48.772;8.754;2023-01-24T07:26:49;51.03;;;19.83;;
16510;SDS011;8368;48.772;8.754;2023-01-24T07:29:16;51.50;;;21.47;;
16510;SDS011;8368;48.772;8.754;2023-01-24T07:31:42;50.30;;;21.17;;
16510;SDS011;8368;48.772;8.754;2023-01-24T07:34:08;55.10;;;22.07;;
16510;SDS011;8368;48.772;8.754;2023-01-24T07:36:33;57.53;;;22.57;;
16510;SDS011;8368;48.772;8.754;2023-01-24T07:38:59;59.87;;;22.07;;
16510;SDS011;8368;48.772;8.754;2023-01-24T07:41:24;45.57;;;20.23;;
16510;SDS011;8368;48.772;8.754;2023-01-24T07:43:50;53.07;;;21.03;;
16510;SDS011;8368;48.772;8.754;2023-01-24T07:46:15;58.40;;;22.13;;
16510;SDS011;8368;48.772;8.754;2023-01-24T07:48:41;49.60;;;19.67;;
16510;SDS011;8368;48.772;8.754;2023-01-24T07:51:06;49.57;;;21.50;;
16510;SDS011;8368;48.772;8.754;2023-01-24T07:53:34;48.93;;;19.90;;
16510;SDS011;8368;48.772;8.754;2023-01-24T07:56:00;50.97;;;20.47;;
16510;SDS011;8368;48.772;8.754;2023-01-24T07:58:26;54.13;;;20.87;;
16510;SDS011;8368;48.772;8.754;2023-01-24T08:00:52;55.50;;;21.43;;
16510;SDS011;8368;48.772;8.754;2023-01-24T08:03:18;54.93;;;21.57;;
16510;SDS011;8368;48.772;8.754;2023-01-24T08:05:43;55.93;;;20.63;;
16510;SDS011;8368;48.772;8.754;2023-01-24T08:08:09;54.03;;;21.17;;
16510;SDS011;8368;48.772;8.754;2023-01-24T08:10:34;56.93;;;21.67;;
16510;SDS011;8368;48.772;8.754;2023-01-24T08:13:00;52.73;;;20.70;;
16510;SDS011;8368;48.772;8.754;2023-01-24T08:15:26;46.67;;;19.73;;
16510;SDS011;8368;48.772;8.754;2023-01-24T08:17:51;47.27;;;20.00;;
16510;SDS011;8368;48.772;8.754;2023-01-24T08:20:17;48.50;;;20.60;;
16510;SDS011;8368;48.772;8.754;2023-01-24T08:22:43;46.07;;;18.83;;
16510;SDS011;8368;48.772;8.754;2023-01-24T08:25:08;49.10;;;19.63;;
16510;SDS011;8368;48.772;8.754;2023-01-24T08:27:34;48.07;;;19.73;;
16510;SDS011;8368;48.772;8.754;2023-01-24T08:30:00;45.63;;;19.13;;
16510;SDS011;8368;48.772;8.754;2023-01-24T08:32:26;47.33;;;21.43;;
16510;SDS011;8368;48.772;8.754;2023-01-24T08:34:52;46.60;;;19.23;;
16510;SDS011;8368;48.772;8.754;2023-01-24T08:37:17;47.57;;;19.67;;
16510;SDS011;8368;48.772;8.754;2023-01-24T08:39:43;51.33;;;19.47;;
16510;SDS011;8368;48.772;8.754;2023-01-24T08:42:08;49.90;;;19.43;;
16510;SDS011;8368;48.772;8.754;2023-01-24T08:44:34;44.10;;;18.87;;
16510;SDS011;8368;48.772;8.754;2023-01-24T08:47:00;49.20;;;19.37;;
16510;SDS011;8368;48.772;8.754;2023-01-24T08:49:26;46.07;;;19.90;;
16510;SDS011;8368;48.772;8.754;2023-01-24T08:51:51;48.70;;;20.03;;
16510;SDS011;8368;48.772;8.754;2023-01-24T08:54:23;45.37;;;19.33;;
16510;SDS011;8368;48.772;8.754;2023-01-24T08:56:50;43.00;;;18.73;;
16510;SDS011;8368;48.772;8.754;2023-01-24T08:59:16;46.10;;;18.83;;
16510;SDS011;8368;48.772;8.754;2023-01-24T09:01:41;41.50;;;17.93;;
16510;SDS011;8368;48.772;8.754;2023-01-24T09:04:07;49.30;;;19.57;;
16510;SDS011;8368;48.772;8.754;2023-01-24T09:06:33;49.30;;;19.93;;
16510;SDS011;8368;48.772;8.754;2023-01-24T09:08:59;48.47;;;20.10;;
16510;SDS011;8368;48.772;8.754;2023-01-24T09:11:25;46.70;;;19.37;;
16510;SDS011;8368;48.772;8.754;2023-01-24T09:13:50;39.07;;;18.23;;
16510;SDS011;8368;48.772;8.754;2023-01-24T09:16:16;49.67;;;19.30;;
16510;SDS011;8368;48.772;8.754;2023-01-24T09:18:41;44.87;;;19.50;;
16510;SDS011;8368;48.772;8.754;2023-01-24T09:21:07;42.87;;;18.27;;
16510;SDS011;8368;48.772;8.754;2023-01-24T09:23:32;43.43;;;19.03;;
16510;SDS011;8368;48.772;8.754;2023-01-24T09:25:58;40.57;;;18.17;;
16510;SDS011;8368;48.772;8.754;2023-01-24T09:28:24;36.60;;;17.23;;
16510;SDS011;8368;48.772;8.754;2023-01-24T09:30:49;38.17;;;17.87;;
16510;SDS011;8368;48.772;8.754;2023-01-24T09:33:16;39.73;;;18.43;;
16510;SDS011;8368;48.772;8.754;2023-01-24T09:35:55;42.87;;;19.20;;
16510;SDS011;8368;48.772;8.754;2023-01-24T09:38:23;40.13;;;17.10;;
16510;SDS011;8368;48.772;8.754;2023-01-24T09:46:37;43.80;;;18.97;;
16510;SDS011;8368;48.772;8.754;2023-01-24T09:52:01;40.93;;;18.57;;
16510;SDS011;8368;48.772;8.754;2023-01-24T09:54:36;38.63;;;17.83;;
16510;SDS011;8368;48.772;8.754;2023-01-24T09:57:13;44.03;;;17.80;;
16510;SDS011;8368;48.772;8.754;2023-01-24T09:59:53;37.33;;;17.50;;
16510;SDS011;8368;48.772;8.754;2023-01-24T10:02:25;39.47;;;18.03;;
16510;SDS011;8368;48.772;8.754;2023-01-24T10:04:54;37.60;;;18.43;;
16510;SDS011;8368;48.772;8.754;2023-01-24T10:12:56;43.83;;;18.73;;
16510;SDS011;8368;48.772;8.754;2023-01-24T10:21:46;32.93;;;16.90;;
16510;SDS011;8368;48.772;8.754;2023-01-24T10:24:35;34.33;;;16.53;;
16510;SDS011;8368;48.772;8.754;2023-01-24T10:27:38;36.13;;;17.23;;
16510;SDS011;8368;48.772;8.754;2023-01-24T10:29:58;36.30;;;16.53;;
16510;SDS011;8368;48.772;8.754;2023-01-24T10:32:37;37.50;;;17.00;;
16510;SDS011;8368;48.772;8.754;2023-01-24T10:35:13;36.97;;;17.17;;
16510;SDS011;8368;48.772;8.754;2023-01-24T10:37:42;40.97;;;18.77;;
16510;SDS011;8368;48.772;8.754;2023-01-24T10:40:16;37.10;;;16.73;;
16510;SDS011;8368;48.772;8.754;2023-01-24T10:42:42;35.87;;;17.30;;
16510;SDS011;8368;48.772;8.754;2023-01-24T10:47:52;35.70;;;17.37;;
16510;SDS011;8368;48.772;8.754;2023-01-24T10:50:31;35.97;;;15.53;;
16510;SDS011;8368;48.772;8.754;2023-01-24T10:53:21;32.27;;;16.27;;
16510;SDS011;8368;48.772;8.754;2023-01-24T10:56:01;33.80;;;17.00;;
16510;SDS011;8368;48.772;8.754;2023-01-24T10:58:36;32.07;;;16.13;;
16510;SDS011;8368;48.772;8.754;2023-01-24T11:01:23;30.47;;;15.43;;
16510;SDS011;8368;48.772;8.754;2023-01-24T11:03:58;34.30;;;16.33;;
16510;SDS011;8368;48.772;8.754;2023-01-24T11:08:55;32.53;;;15.33;;
16510;SDS011;8368;48.772;8.754;2023-01-24T11:11:35;32.77;;;15.23;;
16510;SDS011;8368;48.772;8.754;2023-01-24T11:14:12;31.23;;;16.40;;
16510;SDS011;8368;48.772;8.754;2023-01-24T11:16:41;33.57;;;17.17;;
16510;SDS011;8368;48.772;8.754;2023-01-24T11:19:31;34.00;;;16.20;;
16510;SDS011;8368;48.772;8.754;2023-01-24T11:24:59;33.63;;;16.97;;
16510;SDS011;8368;48.772;8.754;2023-01-24T11:27:26;30.17;;;15.30;;
16510;SDS011;8368;48.772;8.754;2023-01-24T11:32:39;31.67;;;16.47;;
16510;SDS011;8368;48.772;8.754;2023-01-24T11:35:18;30.47;;;15.80;;
16510;SDS011;8368;48.772;8.754;2023-01-24T11:38:05;31.40;;;15.97;;
16510;SDS011;8368;48.772;8.754;2023-01-24T11:40:38;30.30;;;15.37;;
16510;SDS011;8368;48.772;8.754;2023-01-24T11:43:17;26.53;;;14.93;;
16510;SDS011;8368;48.772;8.754;2023-01-24T11:46:06;28.23;;;15.00;;
16510;SDS011;8368;48.772;8.754;2023-01-24T11:48:47;32.17;;;16.03;;
16510;SDS011;8368;48.772;8.754;2023-01-24T11:51:24;24.53;;;13.80;;
16510;SDS011;8368;48.772;8.754;2023-01-24T12:08:20;27.57;;;14.80;;
16510;SDS011;8368;48.772;8.754;2023-01-24T12:13:44;26.33;;;13.87;;
16510;SDS011;8368;48.772;8.754;2023-01-24T12:16:35;22.30;;;13.27;;
16510;SDS011;8368;48.772;8.754;2023-01-24T12:22:21;27.10;;;13.87;;
16510;SDS011;8368;48.772;8.754;2023-01-24T12:27:56;30.17;;;14.77;;
16510;SDS011;8368;48.772;8.754;2023-01-24T12:35:55;24.70;;;13.23;;
16510;SDS011;8368;48.772;8.754;2023-01-24T12:46:16;27.43;;;13.40;;
16510;SDS011;8368;48.772;8.754;2023-01-24T12:48:55;26.67;;;14.47;;
16510;SDS011;8368;48.772;8.754;2023-01-24T12:51:55;26.13;;;13.17;;
16510;SDS011;8368;48.772;8.754;2023-01-24T12:54:25;26.00;;;13.30;;
16510;SDS011;8368;48.772;8.754;2023-01-24T12:59:24;20.80;;;12.70;;
16510;SDS011;8368;48.772;8.754;2023-01-24T13:04:47;24.93;;;13.17;;
16510;SDS011;8368;48.772;8.754;2023-01-24T13:12:22;22.77;;;12.50;;
16510;SDS011;8368;48.772;8.754;2023-01-24T13:14:51;20.60;;;11.73;;
16510;SDS011;8368;48.772;8.754;2023-01-24T13:17:43;24.57;;;13.60;;
16510;SDS011;8368;48.772;8.754;2023-01-24T13:23:22;32.17;;;14.60;;
16510;SDS011;8368;48.772;8.754;2023-01-24T13:29:24;22.30;;;12.70;;
16510;SDS011;8368;48.772;8.754;2023-01-24T13:32:17;23.60;;;12.47;;
16510;SDS011;8368;48.772;8.754;2023-01-24T13:34:56;23.00;;;12.13;;
16510;SDS011;8368;48.772;8.754;2023-01-24T13:37:28;21.90;;;13.37;;
16510;SDS011;8368;48.772;8.754;2023-01-24T13:40:02;23.83;;;13.60;;
16510;SDS011;8368;48.772;8.754;2023-01-24T13:42:47;21.33;;;11.83;;
16510;SDS011;8368;48.772;8.754;2023-01-24T13:47:50;20.90;;;12.00;;
16510;SDS011;8368;48.772;8.754;2023-01-24T13:50:18;19.47;;;12.20;;
16510;SDS011;8368;48.772;8.754;2023-01-24T13:52:53;23.77;;;13.80;;
16510;SDS011;8368;48.772;8.754;2023-01-24T13:57:49;19.97;;;11.40;;
16510;SDS011;8368;48.772;8.754;2023-01-24T14:00:34;19.80;;;11.87;;
16510;SDS011;8368;48.772;8.754;2023-01-24T14:05:54;20.60;;;12.13;;
16510;SDS011;8368;48.772;8.754;2023-01-24T14:11:08;21.27;;;12.50;;
16510;SDS011;8368;48.772;8.754;2023-01-24T14:18:56;20.83;;;12.77;;
16510;SDS011;8368;48.772;8.754;2023-01-24T14:21:48;18.33;;;11.77;;
16510;SDS011;8368;48.772;8.754;2023-01-24T14:24:20;18.37;;;11.60;;
16510;SDS011;8368;48.772;8.754;2023-01-24T14:26:57;18.73;;;11.53;;
16510;SDS011;8368;48.772;8.754;2023-01-24T14:29:36;18.13;;;11.60;;
16510;SDS011;8368;48.772;8.754;2023-01-24T14:32:14;21.73;;;11.93;;
16510;SDS011;8368;48.772;8.754;2023-01-24T14:34:58;22.40;;;12.57;;
16510;SDS011;8368;48.772;8.754;2023-01-24T14:37:33;20.47;;;12.03;;
16510;SDS011;8368;48.772;8.754;2023-01-24T14:42:48;18.53;;;10.83;;
16510;SDS011;8368;48.772;8.754;2023-01-24T14:45:16;23.57;;;12.27;;
16510;SDS011;8368;48.772;8.754;2023-01-24T14:47:45;21.20;;;13.07;;
16510;SDS011;8368;48.772;8.754;2023-01-24T14:50:45;21.40;;;11.30;;
16510;SDS011;8368;48.772;8.754;2023-01-24T14:55:53;19.57;;;11.53;;
16510;SDS011;8368;48.772;8.754;2023-01-24T14:58:22;22.43;;;12.30;;
16510;SDS011;8368;48.772;8.754;2023-01-24T15:00:53;23.13;;;12.53;;
16510;SDS011;8368;48.772;8.754;2023-01-24T15:03:24;26.00;;;12.43;;
16510;SDS011;8368;48.772;8.754;2023-01-24T15:05:54;23.70;;;12.20;;
16510;SDS011;8368;48.772;8.754;2023-01-24T15:08:31;20.77;;;12.93;;
16510;SDS011;8368;48.772;8.754;2023-01-24T15:13:33;22.43;;;12.40;;
16510;SDS011;8368;48.772;8.754;2023-01-24T15:16:19;21.83;;;11.70;;
16510;SDS011;8368;48.772;8.754;2023-01-24T15:18:51;21.80;;;12.87;;
16510;SDS011;8368;48.772;8.754;2023-01-24T15:21:22;26.07;;;12.50;;
16510;SDS011;8368;48.772;8.754;2023-01-24T15:23:53;24.93;;;13.30;;
16510;SDS011;8368;48.772;8.754;2023-01-24T15:34:43;30.90;;;14.40;;
16510;SDS011;8368;48.772;8.754;2023-01-24T15:37:09;28.20;;;13.40;;
16510;SDS011;8368;48.772;8.754;2023-01-24T15:39:38;26.73;;;13.23;;
16510;SDS011;8368;48.772;8.754;2023-01-24T15:42:14;27.43;;;14.50;;
16510;SDS011;8368;48.772;8.754;2023-01-24T15:45:00;27.40;;;13.00;;
16510;SDS011;8368;48.772;8.754;2023-01-24T15:47:26;25.40;;;14.17;;
16510;SDS011;8368;48.772;8.754;2023-01-24T15:50:17;27.90;;;14.93;;
16510;SDS011;8368;48.772;8.754;2023-01-24T15:55:49;32.73;;;14.67;;
16510;SDS011;8368;48.772;8.754;2023-01-24T15:58:16;31.20;;;15.03;;
16510;SDS011;8368;48.772;8.754;2023-01-24T16:00:49;29.13;;;15.63;;
16510;SDS011;8368;48.772;8.754;2023-01-24T16:03:16;30.27;;;15.83;;
16510;SDS011;8368;48.772;8.754;2023-01-24T16:05:41;32.17;;;16.37;;
16510;SDS011;8368;48.772;8.754;2023-01-24T16:08:07;34.83;;;18.90;;
16510;SDS011;8368;48.772;8.754;2023-01-24T16:10:33;34.30;;;19.20;;
16510;SDS011;8368;48.772;8.754;2023-01-24T16:12:59;33.07;;;17.73;;
16510;SDS011;8368;48.772;8.754;2023-01-24T16:15:25;34.40;;;17.50;;
16510;SDS011;8368;48.772;8.754;2023-01-24T16:17:51;31.90;;;15.70;;
16510;SDS011;8368;48.772;8.754;2023-01-24T16:20:17;34.07;;;18.37;;
16510;SDS011;8368;48.772;8.754;2023-01-24T16:22:45;36.63;;;19.80;;
16510;SDS011;8368;48.772;8.754;2023-01-24T16:25:11;36.77;;;16.63;;
16510;SDS011;8368;48.772;8.754;2023-01-24T16:27:37;39.70;;;22.20;;
16510;SDS011;8368;48.772;8.754;2023-01-24T16:30:03;35.60;;;17.77;;
16510;SDS011;8368;48.772;8.754;2023-01-24T16:32:30;37.50;;;18.77;;
16510;SDS011;8368;48.772;8.754;2023-01-24T16:34:56;39.63;;;17.20;;
16510;SDS011;8368;48.772;8.754;2023-01-24T16:37:21;37.10;;;17.10;;
16510;SDS011;8368;48.772;8.754;2023-01-24T16:39:47;38.13;;;18.47;;
16510;SDS011;8368;48.772;8.754;2023-01-24T16:42:17;38.83;;;17.70;;
16510;SDS011;8368;48.772;8.754;2023-01-24T16:44:45;40.63;;;18.07;;
16510;SDS011;8368;48.772;8.754;2023-01-24T16:47:19;35.60;;;16.67;;
16510;SDS011;8368;48.772;8.754;2023-01-24T16:49:45;40.73;;;18.37;;
16510;SDS011;8368;48.772;8.754;2023-01-24T16:52:10;37.83;;;16.93;;
16510;SDS011;8368;48.772;8.754;2023-01-24T16:54:36;46.23;;;18.60;;
16510;SDS011;8368;48.772;8.754;2023-01-24T16:57:01;40.07;;;17.17;;
16510;SDS011;8368;48.772;8.754;2023-01-24T16:59:27;35.37;;;17.20;;
16510;SDS011;8368;48.772;8.754;2023-01-24T17:01:52;39.80;;;17.70;;
16510;SDS011;8368;48.772;8.754;2023-01-24T17:04:18;43.03;;;17.63;;